Time;durP1;ratioP1;P1;durP2;ratioP2;P2;SDS_P1;SDS_P2;PMS_P1;PMS_P2;Temp;Humidity;BMP_temperature;BMP_pressure;BME280_temperature;BME280_humidity;BME280_pressure;Samples;Min_cycle;Max_cycle;Signal;HPM_P1;HPM_P2
2023/03/28 00:02:01;;;;;;;;;;;;;;;17.70;66.46;99264.38;7407293;19;1731;-43
2023/03/28 00:04:30;;;;;;;;;;;;;;;17.66;66.12;99247.81;7404928;19;1818;-44
2023/03/28 00:07:01;;;;;;;;;;;;;;;17.71;66.54;99255.38;7404334;19;1882;-43
2023/03/28 00:09:30;;;;;;;;;;;;;;;17.66;66.19;99253.16;7405194;19;1729;-44
2023/03/28 00:11:58;;;;;;;;;;;;;;;17.67;66.05;99264.72;7406804;19;1967;-43
2023/03/28 00:14:28;;;;;;;;;;;;;;;17.64;66.21;99265.03;7407180;19;1861;-43
2023/03/28 00:17:00;;;;;;;;;;;;;;;17.65;66.49;99288.09;7407476;19;1105;-43
2023/03/28 00:19:31;;;;;;;;;;;;;;;17.64;66.53;99262.34;7406911;19;1620;-43
2023/03/28 00:22:02;;;;;;;;;;;;;;;17.60;66.34;99295.75;7405611;19;1080;-43
2023/03/28 00:24:47;;;;;;;;;;;;;;;17.63;66.17;99295.44;7404643;19;1953;-43
2023/03/28 00:27:16;;;;;;;;;;;;;;;17.63;66.01;99296.28;7404784;19;1631;-43
2023/03/28 00:29:45;;;;;;;;;;;;;;;17.59;66.29;99278.88;7402916;19;992;-44
2023/03/28 00:32:13;;;;;;;;;;;;;;;17.59;66.35;99288.75;7405000;19;1698;-43
2023/03/28 00:34:47;;;;;;;;;;;;;;;17.58;66.51;99271.03;7403040;19;1866;-44
2023/03/28 00:37:21;;;;;;;;;;;;;;;17.55;66.04;99284.69;7404179;19;1876;-44
2023/03/28 00:39:52;;;;;;;;;;;;;;;17.56;66.59;99300.56;7402528;19;1859;-44
2023/03/28 00:42:24;;;;;;;;;;;;;;;17.57;65.76;99312.97;7405814;19;1767;-43
2023/03/28 00:44:54;;;;;;;;;;;;;;;17.59;65.91;99307.47;7404628;19;1031;-44
2023/03/28 00:47:29;;;;;;;;;;;;;;;17.58;65.57;99303.09;7405781;19;1009;-44
2023/03/28 00:50:01;;;;;;;;;;;;;;;17.56;65.61;99295.22;7405272;19;951;-44
2023/03/28 00:52:36;;;;;;;;;;;;;;;17.56;66.30;99291.72;7406014;19;1864;-43
2023/03/28 00:55:05;;;;;;;;;;;;;;;17.57;66.36;99307.63;7405250;19;1935;-44
2023/03/28 00:57:33;;;;;;;;;;;;;;;17.60;65.47;99301.09;7405475;19;2093;-44
2023/03/28 01:00:05;;;;;;;;;;;;;;;17.55;65.96;99314.09;7401639;19;1309;-43
2023/03/28 01:02:33;;;;;;;;;;;;;;;17.59;65.70;99294.09;7404572;19;1843;-44
2023/03/28 01:05:04;;;;;;;;;;;;;;;17.56;65.33;99289.88;7401973;19;1552;-43
2023/03/28 01:07:44;;;;;;;;;;;;;;;17.49;65.04;99300.41;7404986;19;1724;-44
2023/03/28 01:10:13;;;;;;;;;;;;;;;17.48;65.89;99293.38;7404147;19;1539;-43
2023/03/28 01:12:42;;;;;;;;;;;;;;;17.49;65.40;99302.25;7402796;19;2098;-44
2023/03/28 01:15:11;;;;;;;;;;;;;;;17.46;65.22;99287.34;7404072;19;2146;-44
2023/03/28 01:17:40;;;;;;;;;;;;;;;17.48;65.74;99300.56;7405172;19;1726;-44
2023/03/28 01:20:17;;;;;;;;;;;;;;;17.50;66.27;99290.53;7400801;19;1921;-44
2023/03/28 01:23:04;;;;;;;;;;;;;;;17.48;65.80;99282.69;7405418;19;991;-43
2023/03/28 01:25:43;;;;;;;;;;;;;;;17.48;65.59;99288.03;7400056;19;1883;-44
2023/03/28 01:28:21;;;;;;;;;;;;;;;17.48;66.22;99290.69;7404525;19;1822;-43
2023/03/28 01:31:14;;;;;;;;;;;;;;;17.47;65.41;99296.22;7405012;19;1679;-44
2023/03/28 01:34:03;;;;;;;;;;;;;;;17.48;65.77;99312.06;7401473;19;1732;-44
2023/03/28 01:36:58;;;;;;;;;;;;;;;17.56;66.17;99305.09;7399356;19;1858;-44
2023/03/28 01:39:32;;;;;;;;;;;;;;;17.52;67.09;99314.44;7399355;19;2365;-44
2023/03/28 01:42:07;;;;;;;;;;;;;;;17.52;66.67;99309.09;7401707;19;1187;-44
2023/03/28 01:44:37;;;;;;;;;;;;;;;17.84;67.09;99314.56;7404680;19;1114;-44
2023/03/28 01:47:10;;;;;;;;;;;;;;;18.81;64.10;99322.03;7404641;19;2142;-44
2023/03/28 01:49:46;;;;;;;;;;;;;;;19.81;61.27;99319.69;7404454;19;2143;-44
2023/03/28 01:52:19;;;;;;;;;;;;;;;20.55;59.37;99331.78;7403578;19;2107;-43
2023/03/28 01:54:53;;;;;;;;;;;;;;;20.46;59.53;99331.84;7403012;19;1867;-44
2023/03/28 01:57:25;;;;;;;;;;;;;;;20.34;59.82;99359.31;7403347;19;2175;-44
2023/03/28 01:59:59;;;;;;;;;;;;;;;20.36;59.93;99351.91;7404311;19;2124;-44
2023/03/28 02:02:31;;;;;;;;;;;;;;;20.37;59.82;99343.69;7403124;19;1869;-44
2023/03/28 02:05:00;;;;;;;;;;;;;;;20.41;59.71;99358.44;7402898;19;1876;-44
2023/03/28 02:07:33;;;;;;;;;;;;;;;20.42;59.69;99348.50;7401838;19;1858;-43
2023/03/28 02:10:04;;;;;;;;;;;;;;;20.42;59.82;99375.34;7403107;19;1959;-43
2023/03/28 02:12:36;;;;;;;;;;;;;;;20.51;59.63;99366.22;7402861;19;1691;-44
2023/03/28 02:15:06;;;;;;;;;;;;;;;20.47;59.73;99351.47;7399750;19;1976;-44
2023/03/28 02:17:40;;;;;;;;;;;;;;;20.55;59.71;99380.97;7401141;19;1790;-43
2023/03/28 02:20:13;;;;;;;;;;;;;;;20.58;59.45;99380.59;7400598;19;1634;-44
2023/03/28 02:22:49;;;;;;;;;;;;;;;20.63;59.58;99394.38;7403428;19;2147;-43
2023/03/28 02:25:19;;;;;;;;;;;;;;;20.64;58.95;99385.28;7402680;19;1863;-44
2023/03/28 02:27:50;;;;;;;;;;;;;;;20.74;58.85;99406.53;7403403;19;1027;-44
2023/03/28 02:30:19;;;;;;;;;;;;;;;20.71;58.87;99404.22;7401624;19;1650;-44
2023/03/28 02:32:48;;;;;;;;;;;;;;;20.68;59.01;99438.66;7401979;19;1566;-44
2023/03/28 02:35:17;;;;;;;;;;;;;;;20.75;59.04;99412.75;7401978;19;1966;-43
2023/03/28 02:37:53;;;;;;;;;;;;;;;20.77;58.90;99410.72;7402441;19;1879;-43
2023/03/28 02:40:32;;;;;;;;;;;;;;;20.74;58.79;99428.03;7400096;19;1335;-44
2023/03/28 02:43:30;;;;;;;;;;;;;;;20.78;59.03;99423.13;7400315;19;1905;-44
2023/03/28 02:46:07;;;;;;;;;;;;;;;20.90;58.65;99448.56;7396659;19;1715;-43
2023/03/28 02:48:52;;;;;;;;;;;;;;;20.92;58.51;99441.16;7399689;19;1821;-44
2023/03/28 02:51:24;;;;;;;;;;;;;;;20.90;58.55;99437.81;7400514;19;1929;-43
2023/03/28 02:54:00;;;;;;;;;;;;;;;20.96;58.57;99450.53;7400595;19;1702;-43
2023/03/28 02:56:31;;;;;;;;;;;;;;;20.93;58.38;99453.59;7399174;19;1850;-44
2023/03/28 02:59:03;;;;;;;;;;;;;;;21.06;58.27;99452.97;7400845;19;1763;-43
2023/03/28 03:01:32;;;;;;;;;;;;;;;21.04;58.22;99477.34;7400430;19;1366;-44
2023/03/28 03:04:01;;;;;;;;;;;;;;;21.05;58.19;99478.19;7397989;19;1918;-43
2023/03/28 03:06:33;;;;;;;;;;;;;;;20.93;58.46;99474.22;7399161;19;1260;-44
2023/03/28 03:09:07;;;;;;;;;;;;;;;20.85;58.73;99472.47;7401157;19;1822;-43
2023/03/28 03:11:35;;;;;;;;;;;;;;;20.86;58.52;99495.63;7401130;19;1863;-44
2023/03/28 03:14:03;;;;;;;;;;;;;;;20.76;58.65;99458.22;7401010;19;1902;-44
2023/03/28 03:16:31;;;;;;;;;;;;;;;20.78;58.78;99487.63;7399895;19;1903;-43
2023/03/28 03:19:00;;;;;;;;;;;;;;;20.75;58.91;99490.66;7400277;19;2206;-44
2023/03/28 03:21:28;;;;;;;;;;;;;;;20.84;58.70;99476.97;7399505;19;2197;-44
2023/03/28 03:23:57;;;;;;;;;;;;;;;20.98;58.31;99467.31;7398975;19;2165;-44
2023/03/28 03:26:28;;;;;;;;;;;;;;;20.92;58.57;99486.84;7398936;19;2201;-44
2023/03/28 03:28:56;;;;;;;;;;;;;;;20.95;58.02;99473.06;7402821;19;1814;-44
2023/03/28 03:31:25;;;;;;;;;;;;;;;20.99;58.35;99495.88;7405468;19;1952;-43
2023/03/28 03:33:53;;;;;;;;;;;;;;;20.95;58.27;99482.94;7405000;19;1969;-43
2023/03/28 03:36:48;;;;;;;;;;;;;;;20.97;58.25;99489.84;7403118;19;1842;-44
2023/03/28 03:39:17;;;;;;;;;;;;;;;21.08;58.00;99493.13;7404953;19;2051;-44
2023/03/28 03:41:48;;;;;;;;;;;;;;;21.00;58.03;99491.31;7405906;19;1798;-44
2023/03/28 03:44:16;;;;;;;;;;;;;;;21.01;57.96;99496.53;7406353;19;1791;-43
2023/03/28 03:46:44;;;;;;;;;;;;;;;21.09;57.78;99503.69;7407544;19;1727;-44
2023/03/28 03:49:13;;;;;;;;;;;;;;;21.12;58.00;99494.41;7407120;19;987;-43
2023/03/28 03:51:41;;;;;;;;;;;;;;;21.06;57.60;99496.81;7407046;19;1971;-43
2023/03/28 03:54:10;;;;;;;;;;;;;;;21.17;57.85;99498.25;7407735;19;1837;-44
2023/03/28 03:56:38;;;;;;;;;;;;;;;21.24;57.66;99519.84;7403487;19;2144;-44
2023/03/28 03:59:10;;;;;;;;;;;;;;;21.05;58.14;99522.03;7407086;19;1066;-44
2023/03/28 04:01:40;;;;;;;;;;;;;;;20.98;57.94;99525.59;7406695;19;976;-43
2023/03/28 04:04:08;;;;;;;;;;;;;;;20.99;58.04;99538.88;7407754;19;1603;-43
2023/03/28 04:06:37;;;;;;;;;;;;;;;20.98;58.27;99544.41;7408407;19;963;-43
2023/03/28 04:09:07;;;;;;;;;;;;;;;20.97;58.09;99550.78;7408167;19;2124;-43
2023/03/28 04:11:36;;;;;;;;;;;;;;;20.96;58.14;99558.03;7408114;19;2063;-44
2023/03/28 04:14:04;;;;;;;;;;;;;;;20.92;58.11;99562.06;7406962;19;1681;-44
2023/03/28 04:16:36;;;;;;;;;;;;;;;20.92;58.26;99543.28;7404965;19;1884;-43
2023/03/28 04:19:06;;;;;;;;;;;;;;;20.84;58.45;99562.97;7400485;19;2117;-46
2023/03/28 04:24:31;;;;;;;;;;;;;;;20.63;59.31;99571.66;7406554;19;796;-44
2023/03/28 04:27:02;;;;;;;;;;;;;;;20.17;60.24;99587.53;7402908;19;1047;-44
2023/03/28 04:29:36;;;;;;;;;;;;;;;19.89;60.63;99591.63;7406278;19;1341;-44
2023/03/28 04:32:10;;;;;;;;;;;;;;;19.76;60.67;99582.28;7406330;19;2023;-44
2023/03/28 04:34:38;;;;;;;;;;;;;;;19.52;61.13;99599.19;7403889;19;1928;-49
2023/03/28 04:37:08;;;;;;;;;;;;;;;19.37;61.90;99599.00;7404889;19;1864;-47
2023/03/28 04:39:40;;;;;;;;;;;;;;;19.35;61.98;99587.59;7403912;19;1306;-45
2023/03/28 04:42:09;;;;;;;;;;;;;;;19.22;62.27;99598.00;7406077;19;1456;-45
2023/03/28 04:44:39;;;;;;;;;;;;;;;19.15;62.24;99597.78;7405473;19;1483;-44
2023/03/28 04:47:10;;;;;;;;;;;;;;;18.97;62.94;99610.50;7406309;19;1191;-45
2023/03/28 04:49:38;;;;;;;;;;;;;;;19.17;63.22;99624.44;7405463;19;1940;-45
2023/03/28 04:52:09;;;;;;;;;;;;;;;19.74;61.63;99635.25;7404464;19;1412;-45
2023/03/28 04:54:37;;;;;;;;;;;;;;;19.52;62.70;99641.22;7403840;19;1574;-45
2023/03/28 04:57:05;;;;;;;;;;;;;;;19.43;62.09;99643.06;7403280;19;1878;-45
2023/03/28 04:59:36;;;;;;;;;;;;;;;19.30;62.27;99643.56;7406027;19;1522;-45
2023/03/28 05:02:05;;;;;;;;;;;;;;;19.15;62.31;99635.31;7405093;19;1796;-45
2023/03/28 05:04:36;;;;;;;;;;;;;;;19.01;63.09;99649.34;7405371;19;1544;-45
2023/03/28 05:07:07;;;;;;;;;;;;;;;19.39;61.90;99653.28;7404029;19;1665;-45
2023/03/28 05:09:37;;;;;;;;;;;;;;;19.68;61.05;99638.56;7403046;19;1973;-45
2023/03/28 05:12:07;;;;;;;;;;;;;;;19.45;61.23;99636.53;7402804;19;1574;-45
2023/03/28 05:14:36;;;;;;;;;;;;;;;19.25;62.13;99652.06;7399970;19;1607;-45
2023/03/28 05:17:05;;;;;;;;;;;;;;;19.21;61.78;99660.63;7401614;19;1854;-45
2023/03/28 05:19:36;;;;;;;;;;;;;;;19.07;62.82;99654.06;7403239;19;1619;-45
2023/03/28 05:22:04;;;;;;;;;;;;;;;19.23;62.07;99666.66;7403578;19;1430;-45
2023/03/28 05:24:33;;;;;;;;;;;;;;;19.45;61.93;99668.69;7403777;19;1403;-45
2023/03/28 05:27:01;;;;;;;;;;;;;;;19.24;62.61;99660.31;7403719;19;1599;-45
2023/03/28 05:29:30;;;;;;;;;;;;;;;19.26;62.40;99669.03;7402910;19;1657;-45
2023/03/28 05:32:00;;;;;;;;;;;;;;;19.06;62.67;99669.28;7403369;19;1521;-45
2023/03/28 05:34:29;;;;;;;;;;;;;;;19.00;63.30;99671.75;7403431;19;1512;-45
2023/03/28 05:37:00;;;;;;;;;;;;;;;19.21;62.63;99674.03;7401826;19;1862;-45
2023/03/28 05:39:30;;;;;;;;;;;;;;;19.53;61.71;99656.31;7402294;19;1506;-45
2023/03/28 05:42:00;;;;;;;;;;;;;;;19.26;62.84;99671.72;7402914;19;1561;-45
2023/03/28 05:44:29;;;;;;;;;;;;;;;19.07;63.12;99657.56;7403361;19;1900;-45
2023/03/28 05:46:58;;;;;;;;;;;;;;;18.99;62.97;99668.25;7402490;19;1315;-45
2023/03/28 05:49:34;;;;;;;;;;;;;;;18.92;63.23;99683.31;7403239;19;1594;-45
2023/03/28 05:52:07;;;;;;;;;;;;;;;19.23;62.82;99682.75;7401159;19;1976;-45
2023/03/28 05:54:36;;;;;;;;;;;;;;;19.48;61.95;99700.56;7402124;19;1453;-45
2023/03/28 05:57:04;;;;;;;;;;;;;;;19.21;63.08;99708.88;7401092;19;1869;-45
2023/03/28 05:59:34;;;;;;;;;;;;;;;19.06;63.12;99689.91;7402931;19;1574;-45
2023/03/28 06:02:13;;;;;;;;;;;;;;;19.01;63.48;99709.13;7402248;19;1494;-45
2023/03/28 06:04:42;;;;;;;;;;;;;;;19.16;63.26;99695.09;7402960;19;1267;-45
2023/03/28 06:07:14;;;;;;;;;;;;;;;19.41;62.23;99699.53;7402035;19;1841;-45
2023/03/28 06:09:43;;;;;;;;;;;;;;;19.28;62.93;99683.94;7402267;19;1843;-45
2023/03/28 06:12:12;;;;;;;;;;;;;;;19.12;63.00;99699.09;7402932;19;2307;-45
2023/03/28 06:14:40;;;;;;;;;;;;;;;19.00;63.15;99715.50;7402157;19;1633;-45
2023/03/28 06:17:09;;;;;;;;;;;;;;;18.90;63.85;99712.09;7401537;19;1863;-45
2023/03/28 06:19:38;;;;;;;;;;;;;;;19.20;62.97;99723.25;7401336;19;1645;-45
2023/03/28 06:22:06;;;;;;;;;;;;;;;19.52;62.05;99721.66;7401367;19;1839;-45
2023/03/28 06:24:37;;;;;;;;;;;;;;;19.31;62.71;99747.09;7401695;19;1734;-45
2023/03/28 06:27:05;;;;;;;;;;;;;;;19.24;62.90;99752.28;7401957;19;1584;-45
2023/03/28 06:29:34;;;;;;;;;;;;;;;19.04;63.49;99743.66;7401488;19;1592;-45
2023/03/28 06:32:03;;;;;;;;;;;;;;;19.07;64.09;99762.06;7400663;19;1377;-45
2023/03/28 06:34:32;;;;;;;;;;;;;;;19.38;63.26;99748.13;7401511;19;1619;-45
2023/03/28 06:37:02;;;;;;;;;;;;;;;19.49;62.88;99763.06;7399753;19;1977;-45
2023/03/28 06:39:30;;;;;;;;;;;;;;;19.33;63.93;99774.56;7399706;19;1790;-45
2023/03/28 06:42:02;;;;;;;;;;;;;;;19.20;64.15;99769.69;7400883;19;1603;-45
2023/03/28 06:44:30;;;;;;;;;;;;;;;18.97;64.59;99782.78;7399191;19;1408;-45
2023/03/28 06:47:08;;;;;;;;;;;;;;;19.08;64.52;99774.47;7400768;19;1873;-45
2023/03/28 06:49:36;;;;;;;;;;;;;;;19.51;63.00;99777.16;7400595;19;1423;-45
2023/03/28 06:52:04;;;;;;;;;;;;;;;19.32;63.80;99790.81;7400197;19;2192;-45
2023/03/28 06:54:33;;;;;;;;;;;;;;;19.13;64.12;99786.56;7401001;19;1601;-45
2023/03/28 06:57:04;;;;;;;;;;;;;;;19.07;64.22;99799.56;7399428;19;1854;-45
2023/03/28 06:59:33;;;;;;;;;;;;;;;18.97;64.65;99812.25;7399466;19;1666;-45
2023/03/28 07:02:01;;;;;;;;;;;;;;;19.25;64.36;99801.34;7400721;19;1765;-45
2023/03/28 07:04:31;;;;;;;;;;;;;;;19.42;63.44;99813.00;7400812;19;1275;-45
2023/03/28 07:07:27;;;;;;;;;;;;;;;19.20;64.29;99817.06;7399959;19;1878;-45
2023/03/28 07:09:56;;;;;;;;;;;;;;;19.05;64.00;99839.09;7399794;19;1611;-45
2023/03/28 07:12:27;;;;;;;;;;;;;;;18.90;65.07;99832.66;7400298;19;1283;-45
2023/03/28 07:14:56;;;;;;;;;;;;;;;19.12;64.33;99839.31;7400833;19;1618;-45
2023/03/28 07:17:24;;;;;;;;;;;;;;;19.53;63.07;99847.53;7398220;19;1870;-46
2023/03/28 07:19:53;;;;;;;;;;;;;;;19.29;63.69;99861.69;7399662;19;1099;-45
2023/03/28 07:22:21;;;;;;;;;;;;;;;19.15;63.87;99848.88;7399477;19;2228;-46
2023/03/28 07:24:49;;;;;;;;;;;;;;;18.97;64.05;99852.44;7399789;19;1107;-45
2023/03/28 07:27:19;;;;;;;;;;;;;;;18.93;64.55;99877.88;7399474;19;2667;-45
2023/03/28 07:29:50;;;;;;;;;;;;;;;19.23;63.51;99862.31;7396693;19;1047;-45
2023/03/28 07:32:18;;;;;;;;;;;;;;;19.54;62.95;99865.31;7400191;19;2387;-45
2023/03/28 07:34:46;;;;;;;;;;;;;;;19.20;63.50;99868.84;7398041;19;2191;-45
2023/03/28 07:37:15;;;;;;;;;;;;;;;19.15;63.75;99873.00;7398814;19;1848;-46
2023/03/28 07:39:43;;;;;;;;;;;;;;;18.96;63.55;99861.50;7394852;19;1110;-45
2023/03/28 07:42:12;;;;;;;;;;;;;;;19.05;63.85;99859.69;7398847;19;1023;-45
2023/03/28 07:44:40;;;;;;;;;;;;;;;19.43;62.85;99842.31;7396471;19;963;-45
2023/03/28 07:47:11;;;;;;;;;;;;;;;19.33;63.68;99872.94;7400477;19;1832;-45
2023/03/28 07:49:40;;;;;;;;;;;;;;;19.15;63.62;99862.28;7396100;19;1126;-45
2023/03/28 07:52:10;;;;;;;;;;;;;;;19.03;63.91;99875.94;7398415;19;1811;-45
2023/03/28 07:54:38;;;;;;;;;;;;;;;18.90;63.91;99856.75;7399342;19;1022;-45
2023/03/28 07:57:07;;;;;;;;;;;;;;;19.26;63.27;99872.72;7399521;19;2243;-45
2023/03/28 07:59:37;;;;;;;;;;;;;;;19.49;62.94;99867.63;7397708;19;1121;-45
2023/03/28 08:02:06;;;;;;;;;;;;;;;19.24;63.24;99859.47;7397914;19;1562;-45
2023/03/28 08:04:37;;;;;;;;;;;;;;;19.26;63.07;99868.19;7398410;19;2016;-45
2023/03/28 08:07:06;;;;;;;;;;;;;;;19.04;63.64;99877.63;7399173;19;1002;-45
2023/03/28 08:09:34;;;;;;;;;;;;;;;19.27;63.07;99875.22;7398023;19;1775;-45
2023/03/28 08:12:03;;;;;;;;;;;;;;;19.56;62.51;99879.41;7398499;19;994;-45
2023/03/28 08:14:31;;;;;;;;;;;;;;;19.35;63.13;99879.78;7399425;19;1232;-45
2023/03/28 08:16:59;;;;;;;;;;;;;;;19.25;62.96;99887.94;7402113;19;1854;-45
2023/03/28 08:19:28;;;;;;;;;;;;;;;19.07;63.80;99879.97;7406578;19;2227;-45
2023/03/28 08:22:01;;;;;;;;;;;;;;;19.11;63.51;99872.47;7405475;19;1776;-46
2023/03/28 08:24:30;;;;;;;;;;;;;;;19.51;62.55;99886.25;7405878;19;1967;-45
2023/03/28 08:26:59;;;;;;;;;;;;;;;19.41;63.16;99884.53;7406202;19;1773;-45
2023/03/28 08:29:28;;;;;;;;;;;;;;;19.31;63.16;99888.31;7401875;19;1095;-45
2023/03/28 08:31:56;;;;;;;;;;;;;;;19.21;63.53;99897.31;7405503;19;1051;-46
2023/03/28 08:34:25;;;;;;;;;;;;;;;19.05;63.49;99898.03;7405551;19;1616;-45
2023/03/28 08:36:53;;;;;;;;;;;;;;;19.20;63.19;99876.88;7405789;19;1856;-45
2023/03/28 08:39:24;;;;;;;;;;;;;;;19.58;62.27;99874.72;7401805;19;2017;-45
2023/03/28 08:42:08;;;;;;;;;;;;;;;19.41;62.74;99902.47;7402665;19;967;-45
2023/03/28 08:44:53;;;;;;;;;;;;;;;19.20;63.42;99894.78;7401660;19;998;-45
2023/03/28 08:47:24;;;;;;;;;;;;;;;19.12;63.61;99892.91;7399644;19;1139;-46
2023/03/28 08:49:56;;;;;;;;;;;;;;;19.09;63.49;99893.22;7403571;19;1612;-45
2023/03/28 08:52:25;;;;;;;;;;;;;;;19.45;62.68;99907.34;7403434;19;1832;-45
2023/03/28 08:55:00;;;;;;;;;;;;;;;19.76;62.01;99901.50;7406130;19;1329;-45
2023/03/28 08:57:30;;;;;;;;;;;;;;;19.55;62.24;99893.81;7401751;19;1858;-45
2023/03/28 09:00:07;;;;;;;;;;;;;;;19.22;62.96;99898.19;7403134;19;1042;-45
2023/03/28 09:02:36;;;;;;;;;;;;;;;19.13;63.39;99912.50;7404078;19;1799;-46
2023/03/28 09:05:04;;;;;;;;;;;;;;;19.04;63.61;99907.09;7403845;19;1525;-45
2023/03/28 09:07:37;;;;;;;;;;;;;;;19.31;63.22;99924.00;7405443;19;1690;-46
2023/03/28 09:10:16;;;;;;;;;;;;;;;19.66;61.80;99900.75;7402072;19;1629;-45
2023/03/28 09:12:49;;;;;;;;;;;;;;;19.61;62.21;99928.03;7404449;19;1739;-45
2023/03/28 09:15:26;;;;;;;;;;;;;;;19.30;62.53;99919.66;7403678;19;1993;-46
2023/03/28 09:18:10;;;;;;;;;;;;;;;19.16;63.11;99936.28;7400605;19;1854;-45
2023/03/28 09:20:45;;;;;;;;;;;;;;;18.86;63.43;99917.84;7400022;19;1877;-45
2023/03/28 09:23:21;;;;;;;;;;;;;;;18.92;62.39;99923.56;7401290;19;1942;-46
2023/03/28 09:25:56;;;;;;;;;;;;;;;19.60;60.91;99906.75;7398561;19;1645;-45
2023/03/28 09:28:31;;;;;;;;;;;;;;;19.58;61.34;99916.81;7404011;19;1372;-45
2023/03/28 09:31:00;;;;;;;;;;;;;;;19.37;61.84;99920.69;7400439;19;1072;-45
2023/03/28 09:33:30;;;;;;;;;;;;;;;19.16;62.56;99934.47;7400686;19;1042;-45
2023/03/28 09:35:59;;;;;;;;;;;;;;;19.10;62.54;99931.56;7405268;19;1849;-46
2023/03/28 09:38:31;;;;;;;;;;;;;;;19.08;63.28;99945.97;7400031;19;1863;-45
2023/03/28 09:41:05;;;;;;;;;;;;;;;19.52;62.09;99965.69;7404358;19;1852;-45
2023/03/28 09:43:38;;;;;;;;;;;;;;;19.74;61.09;99951.78;7399774;19;1551;-45
2023/03/28 09:46:08;;;;;;;;;;;;;;;19.46;61.59;99954.63;7402970;19;1597;-46
2023/03/28 09:48:39;;;;;;;;;;;;;;;19.17;62.62;99949.53;7402404;19;2021;-45
2023/03/28 09:51:08;;;;;;;;;;;;;;;18.94;62.70;99961.75;7402762;19;1540;-45
2023/03/28 09:53:41;;;;;;;;;;;;;;;18.88;63.64;99950.69;7401040;19;1497;-45
2023/03/28 09:56:16;;;;;;;;;;;;;;;19.28;62.01;99945.78;7403061;19;2367;-50
2023/03/28 09:58:51;;;;;;;;;;;;;;;19.70;61.25;99946.88;7402089;19;1857;-50
2023/03/28 10:01:27;;;;;;;;;;;;;;;19.44;62.12;99951.25;7401485;19;1013;-47
2023/03/28 10:03:56;;;;;;;;;;;;;;;19.15;62.86;99953.38;7400526;19;1367;-47
2023/03/28 10:06:27;;;;;;;;;;;;;;;19.05;62.52;99951.63;7399568;19;1392;-47
2023/03/28 10:09:10;;;;;;;;;;;;;;;18.99;63.52;99967.50;7402229;19;2080;-47
2023/03/28 10:11:53;;;;;;;;;;;;;;;19.38;62.31;99986.72;7403250;19;1901;-47
2023/03/28 10:14:32;;;;;;;;;;;;;;;19.66;61.20;99975.84;7398743;19;1067;-47
2023/03/28 10:17:03;;;;;;;;;;;;;;;19.36;62.05;99996.78;7402470;19;1784;-47
2023/03/28 10:19:33;;;;;;;;;;;;;;;19.19;62.70;100003.00;7400425;19;1883;-47
2023/03/28 10:22:09;;;;;;;;;;;;;;;19.06;62.61;99979.28;7401598;19;1713;-47
2023/03/28 10:24:38;;;;;;;;;;;;;;;19.02;63.35;100005.56;7399969;19;1631;-47
2023/03/28 10:27:15;;;;;;;;;;;;;;;19.30;62.55;99993.84;7402243;19;1837;-47
2023/03/28 10:29:45;;;;;;;;;;;;;;;19.63;61.59;100014.53;7399000;19;1784;-47
2023/03/28 10:32:14;;;;;;;;;;;;;;;19.39;62.45;100007.16;7392516;19;1759;-47
2023/03/28 10:34:43;;;;;;;;;;;;;;;19.22;62.74;100026.81;6885446;19;9999963;-47
2023/03/28 10:37:26;;;;;;;;;;;;;;;19.15;62.87;100020.38;7396327;19;1597;-47
2023/03/28 10:40:03;;;;;;;;;;;;;;;19.02;63.65;100029.66;7397964;19;2070;-47
2023/03/28 10:42:44;;;;;;;;;;;;;;;19.35;62.49;100027.25;7398389;19;1867;-47
2023/03/28 10:45:20;;;;;;;;;;;;;;;19.65;61.86;100036.69;7397341;19;1490;-47
2023/03/28 10:47:49;;;;;;;;;;;;;;;19.38;62.36;100040.34;7399428;19;1641;-47
2023/03/28 10:50:22;;;;;;;;;;;;;;;19.03;62.76;100031.34;7398523;19;1964;-47
2023/03/28 10:52:55;;;;;;;;;;;;;;;18.83;62.64;100051.25;7397553;19;1668;-47
2023/03/28 10:55:27;;;;;;;;;;;;;;;18.94;63.35;100032.28;7398550;19;1845;-47
2023/03/28 10:58:04;;;;;;;;;;;;;;;19.38;62.38;100056.44;7397486;19;1846;-47
2023/03/28 11:00:36;;;;;;;;;;;;;;;19.50;61.86;100056.19;7398282;19;1468;-47
2023/03/28 11:03:12;;;;;;;;;;;;;;;19.22;62.39;100062.50;7398774;19;1263;-47
2023/03/28 11:05:46;;;;;;;;;;;;;;;19.15;62.68;100057.91;7399068;19;1910;-47
2023/03/28 11:08:27;;;;;;;;;;;;;;;19.08;62.59;100060.38;7398236;19;1559;-47
2023/03/28 11:11:02;;;;;;;;;;;;;;;19.12;62.83;100074.28;7397372;19;1551;-47
2023/03/28 11:13:38;;;;;;;;;;;;;;;19.45;62.08;100059.34;7398383;19;1672;-47
2023/03/28 11:16:10;;;;;;;;;;;;;;;19.54;61.72;100062.94;7398150;19;1821;-47
2023/03/28 11:18:47;;;;;;;;;;;;;;;19.22;62.60;100064.34;7396593;19;1956;-47
2023/03/28 11:21:20;;;;;;;;;;;;;;;19.16;62.30;100076.53;7397253;19;1313;-47
2023/03/28 11:23:50;;;;;;;;;;;;;;;18.99;63.00;100053.25;7397284;19;1051;-47
2023/03/28 11:26:20;;;;;;;;;;;;;;;19.17;62.85;100061.28;7396750;19;1626;-47
2023/03/28 11:28:57;;;;;;;;;;;;;;;19.42;61.94;100070.38;7397737;19;1399;-47
2023/03/28 11:31:28;;;;;;;;;;;;;;;19.37;62.04;100068.16;7394918;19;1517;-47
2023/03/28 11:34:00;;;;;;;;;;;;;;;19.16;62.67;100059.59;7396162;19;1613;-47
2023/03/28 11:36:30;;;;;;;;;;;;;;;18.84;59.51;100069.84;7396825;19;1470;-47
2023/03/28 11:39:01;;;;;;;;;;;;;;;18.73;62.90;100063.84;7399257;19;1857;-47
2023/03/28 11:41:32;;;;;;;;;;;;;;;19.15;61.78;100069.47;7400645;19;1397;-47
2023/03/28 11:44:06;;;;;;;;;;;;;;;19.46;61.21;100063.72;7401020;19;1424;-47
2023/03/28 11:46:36;;;;;;;;;;;;;;;19.17;61.87;100072.00;7399992;19;1968;-47
2023/03/28 11:49:10;;;;;;;;;;;;;;;19.06;61.93;100065.03;7399640;19;1664;-47
2023/03/28 11:51:44;;;;;;;;;;;;;;;19.02;61.12;100064.50;7406021;19;1781;-47
2023/03/28 11:54:15;;;;;;;;;;;;;;;18.94;62.50;100077.81;7406135;19;1624;-46
2023/03/28 11:56:47;;;;;;;;;;;;;;;19.35;61.43;100069.31;7407770;19;1769;-47
2023/03/28 11:59:21;;;;;;;;;;;;;;;19.37;61.34;100073.50;7402810;19;1838;-46
2023/03/28 12:01:55;;;;;;;;;;;;;;;19.04;61.74;100085.78;7404485;19;2120;-47
2023/03/28 12:04:26;;;;;;;;;;;;;;;18.96;61.13;100083.88;7405063;19;1623;-47
2023/03/28 12:07:04;;;;;;;;;;;;;;;18.87;62.02;100090.97;7406778;19;1451;-47
2023/03/28 12:09:36;;;;;;;;;;;;;;;19.12;61.39;100085.00;7407393;19;1411;-47
2023/03/28 12:12:06;;;;;;;;;;;;;;;19.53;60.72;100077.34;7406903;19;2020;-47
2023/03/28 12:14:44;;;;;;;;;;;;;;;19.41;61.20;100085.59;7405830;19;1480;-47
2023/03/28 12:17:18;;;;;;;;;;;;;;;19.21;61.83;100101.00;7405890;19;1335;-47
2023/03/28 12:19:47;;;;;;;;;;;;;;;19.12;62.07;100098.41;7404689;19;1857;-47
2023/03/28 12:22:20;;;;;;;;;;;;;;;18.97;62.61;100090.06;7406354;19;1410;-47
2023/03/28 12:24:53;;;;;;;;;;;;;;;19.05;62.76;100100.88;7406912;19;1240;-47
2023/03/28 12:27:26;;;;;;;;;;;;;;;19.55;61.38;100102.16;7404603;19;1004;-47
2023/03/28 12:29:59;;;;;;;;;;;;;;;19.66;61.38;100099.22;7405940;19;1754;-47
2023/03/28 12:32:36;;;;;;;;;;;;;;;19.34;62.43;100097.97;7406704;19;1354;-48
2023/03/28 12:35:08;;;;;;;;;;;;;;;19.11;63.29;100094.06;7404794;19;1866;-47
2023/03/28 12:37:40;;;;;;;;;;;;;;;19.06;63.56;100086.47;7405533;19;1102;-47
2023/03/28 12:40:22;;;;;;;;;;;;;;;19.00;63.82;100103.16;7402666;19;1834;-47
2023/03/28 12:42:52;;;;;;;;;;;;;;;19.00;64.68;100111.19;7404429;19;1886;-47
2023/03/28 12:45:28;;;;;;;;;;;;;;;18.88;65.36;100099.88;7405493;19;1300;-47
2023/03/28 12:48:01;;;;;;;;;;;;;;;18.85;65.40;100116.22;7405706;19;1490;-47
2023/03/28 12:50:32;;;;;;;;;;;;;;;18.78;66.24;100102.56;7406660;19;1599;-47
2023/03/28 12:53:02;;;;;;;;;;;;;;;19.39;63.77;100109.06;7405540;19;1048;-47
2023/03/28 12:55:45;;;;;;;;;;;;;;;19.68;63.07;100114.16;7405115;19;1895;-47
2023/03/28 12:58:26;;;;;;;;;;;;;;;19.42;64.29;100127.53;7402420;19;1850;-47
2023/03/28 13:01:19;;;;;;;;;;;;;;;19.18;64.73;100122.78;7402492;19;1516;-47
2023/03/28 13:04:03;;;;;;;;;;;;;;;19.00;65.76;100124.56;7405246;19;1475;-47
2023/03/28 13:06:35;;;;;;;;;;;;;;;18.95;66.52;100137.59;7404064;19;1921;-47
2023/03/28 13:09:09;;;;;;;;;;;;;;;19.41;64.69;100128.50;7405218;19;1030;-47
2023/03/28 13:11:42;;;;;;;;;;;;;;;19.70;64.15;100118.53;7403959;19;1033;-47
2023/03/28 13:14:29;;;;;;;;;;;;;;;19.38;65.15;100128.00;7401294;19;1228;-47
2023/03/28 13:17:04;;;;;;;;;;;;;;;19.21;65.41;100133.19;7405579;19;1038;-47
2023/03/28 13:19:47;;;;;;;;;;;;;;;19.05;65.77;100144.56;7403492;19;1842;-47
2023/03/28 13:22:32;;;;;;;;;;;;;;;19.01;66.43;100127.13;7404888;19;1834;-47
2023/03/28 13:25:19;;;;;;;;;;;;;;;19.48;65.34;100134.97;7401163;19;1044;-47